Hlavní strana
METAR-TAF:

METAR-TAF

Letiště :

Ammán, Jordánsko

zeměpisná šířka: 31-59N, zeměpisná délka: 035-59E, výška: 767 m

Aktuální stav počasí

Zpráva byla vytvořena před 1 hodinou a 2 minutami, v 21:00 UTC
Bezvětří
Teplota 14°C
Vlhkost vzduchu 77%
Tlak 1011 hPa
Viditelnost: 4000 m
Skoro jasno ve výšce 3000 ft
rozsáhlý prach

METAR: OJAM 252100Z 00000KT 4000 DU FEW030 14/10 Q1011 NOSIG

Čas: 01:02 (22:02 UTC)

Předpověď počasí

Zpráva byla vytvořena před 5 hodinami a 28 minutami, v 16:34 UTC
Předpověď platná od 25 v 18 UTC do 26 v 24 UTC
Západoseverozápadní vítr 18 kt
Viditelnost: 3000 m
Polojasno ve výšce 3000 ft
Skoro jasno ve výšce 3000 ft, Cumulonimbus.
Polojasno ve výšce 3500 ft
slabé dešťové přeháňky
Dočasný
od 26 v 10 UTC do 26 v 18 UTC
Západní vítr 14 kt
Viditelnost: 3000 m
Oblačno až skoro zataženo ve výšce 3000 ft
Oblačno až skoro zataženo ve výšce 8000 ft
Polojasno ve výšce 3000 ft
Polojasno ve výšce 3500 ft
bouřka, déšť, slabé dešťové přeháňky
Dočasný
od 26 v 10 UTC do 26 v 18 UTC
Západní vítr 18 kt
Viditelnost: 2000 m
Skoro jasno ve výšce 3000 ft, Cumulonimbus.
Oblačno až skoro zataženo ve výšce 3000 ft
Oblačno až skoro zataženo ve výšce 8000 ft
bouřka, déšť

TAF: OJAM 251634Z 2518/2624 30018KT 3000 -SHRA FEW 030TCU SCT030 FEW030CB SCT035 TEMPO 2610/2618 28018KT 2000 TSRA FEW 030CB BKN030 BKN080 OJAI 251634Z 2518/2624 26014KT 3000 -SHRA FEW 030TCU SCT030 SCT035 TEMPO 2610/2618 28018KT 2000 TSRA FEW030CB BKN030 BKN080

Stav a předpovědi počasí z více než 4 000 letišť (zprávy METAR a TAF).

Červené a žluté tečky na mapě představují dostupné meteorologické stanice.

Když kurzor umístíte na tečku, zobrazí se název stanice.

Pak kliknutím zobrazíte stav a předpověď počasí.

Chcete-li změnit mapu, kliknutím na zelené tlačítko se znaménkem +mapu přiblížíte, kliknutím na zelené tlačítko se znaménkem – mapu oddálíte a kliknutím na zelené šipky přejdete na sousední mapy.


METAR-TAF: